Time;durP1;ratioP1;P1;durP2;ratioP2;P2;SDS_P1;SDS_P2;PMS_P1;PMS_P2;Temp;Humidity;BMP_temperature;BMP_pressure;BME280_temperature;BME280_humidity;BME280_pressure;Samples;Min_cycle;Max_cycle;Signal;HPM_P1;HPM_P2
2021/12/30 00:00:37;;;;;;;;;;;7.00;99.90;;;;;;5032601;28;20029;-73
2021/12/30 00:03:04;;;;;;;7.05;5.10;;;7.10;99.90;;;;;;5032316;28;19912;-73
2021/12/30 00:05:29;;;;;;;5.78;4.28;;;7.20;99.90;;;;;;5031603;28;20497;-73
2021/12/30 00:07:54;;;;;;;;;;;7.30;99.90;;;;;;5032376;28;20029;-73
2021/12/30 00:10:20;;;;;;;5.50;3.17;;;7.40;99.90;;;;;;5031555;28;19991;-73
2021/12/30 00:12:47;;;;;;;3.42;2.22;;;7.50;99.90;;;;;;5031902;28;20021;-73
2021/12/30 00:15:13;;;;;;;4.75;3.17;;;7.60;99.90;;;;;;5031669;28;20033;-73
2021/12/30 00:17:38;;;;;;;;;;;7.70;99.90;;;;;;5031756;28;20116;-73
2021/12/30 00:20:06;;;;;;;3.47;2.38;;;7.80;99.90;;;;;;5031465;28;19905;-73
2021/12/30 00:22:32;;;;;;;7.40;3.63;;;7.80;99.90;;;;;;5030217;28;20038;-73
2021/12/30 00:24:58;;;;;;;3.15;2.33;;;7.90;99.90;;;;;;5031709;28;20018;-73
2021/12/30 00:27:24;;;;;;;;;;;8.00;99.90;;;;;;5032421;28;20112;-73
2021/12/30 00:29:50;;;;;;;3.55;2.35;;;8.00;99.90;;;;;;5032014;28;19904;-73
2021/12/30 00:32:15;;;;;;;3.40;2.03;;;8.00;99.90;;;;;;5031927;28;20041;-73
2021/12/30 00:34:41;;;;;;;3.10;2.65;;;8.10;99.90;;;;;;5031929;28;20112;-73
2021/12/30 00:37:06;;;;;;;2.70;2.13;;;8.10;99.90;;;;;;5031686;28;20053;-73
2021/12/30 00:39:32;;;;;;;7.10;3.13;;;8.10;99.90;;;;;;5031823;28;20466;-73
2021/12/30 00:41:57;;;;;;;;;;;8.20;99.90;;;;;;5031828;28;20033;-73
2021/12/30 00:44:23;;;;;;;3.63;2.50;;;8.20;99.90;;;;;;5031433;28;19912;-73
2021/12/30 00:46:48;;;;;;;;;;;8.20;99.90;;;;;;5031581;28;20022;-74
2021/12/30 00:49:14;;;;;;;4.20;3.50;;;8.30;99.90;;;;;;5031487;28;20409;-74
2021/12/30 00:51:40;;;;;;;;;;;8.30;99.90;;;;;;5031356;28;20533;-74
2021/12/30 00:54:05;;;;;;;7.22;4.93;;;8.30;99.90;;;;;;5031199;28;20000;-74
2021/12/30 00:56:31;;;;;;;;;;;8.40;99.90;;;;;;5031187;28;20113;-74
2021/12/30 00:58:56;;;;;;;8.25;5.05;;;8.40;99.90;;;;;;5031007;28;19909;-74
2021/12/30 01:01:22;;;;;;;;;;;8.50;99.90;;;;;;5030893;28;20478;-74
2021/12/30 01:03:48;;;;;;;13.02;6.50;;;8.50;99.90;;;;;;5031155;28;20269;-74
2021/12/30 01:06:13;;;;;;;;;;;8.60;99.90;;;;;;5030821;28;20433;-74
2021/12/30 01:08:39;;;;;;;11.32;5.97;;;8.70;99.90;;;;;;5030517;28;20488;-74
2021/12/30 01:11:07;;;;;;;;;;;8.70;99.90;;;;;;5030731;28;20075;-74
2021/12/30 01:13:39;;;;;;;11.50;6.97;;;8.70;99.90;;;;;;5030197;28;20320;-74
2021/12/30 01:16:14;;;;;;;13.98;8.35;;;8.70;99.90;;;;;;5030367;28;20021;-74
2021/12/30 01:18:54;;;;;;;19.50;7.55;;;8.80;99.90;;;;;;5030385;28;20018;-74
2021/12/30 01:21:20;;;;;;;11.13;8.25;;;8.80;99.90;;;;;;5030605;28;20029;-74
2021/12/30 01:23:46;;;;;;;;;;;8.80;99.90;;;;;;5006743;28;20482;-74
2021/12/30 01:26:11;;;;;;;17.27;8.95;;;8.90;99.90;;;;;;5030528;28;19905;-75
2021/12/30 01:28:38;;;;;;;15.00;8.55;;;8.90;99.90;;;;;;5013174;28;20400;-74
2021/12/30 01:31:04;;;;;;;18.90;9.80;;;8.90;99.90;;;;;;5030488;28;20037;-74
2021/12/30 01:33:30;;;;;;;16.95;9.48;;;9.00;99.90;;;;;;5030486;28;20029;-74
2021/12/30 01:35:55;;;;;;;;;;;9.00;99.90;;;;;;5031095;28;20022;-74
2021/12/30 01:38:21;;;;;;;19.58;9.88;;;9.00;99.90;;;;;;5012883;28;20369;-74
2021/12/30 01:40:47;;;;;;;;;;;9.10;99.90;;;;;;5031245;28;20022;-74
2021/12/30 01:43:14;;;;;;;17.00;9.32;;;9.10;99.90;;;;;;5030162;28;19983;-74
2021/12/30 01:45:41;;;;;;;23.70;11.50;;;9.10;99.90;;;;;;5030217;28;20063;-74
2021/12/30 01:48:07;;;;;;;21.70;10.70;;;9.20;99.90;;;;;;5029992;28;20017;-74
2021/12/30 01:50:32;;;;;;;;;;;9.20;99.90;;;;;;5030639;28;20470;-74
2021/12/30 01:52:58;;;;;;;26.33;10.95;;;9.30;99.90;;;;;;5029852;28;19905;-74
2021/12/30 01:55:24;;;;;;;;;;;9.30;99.90;;;;;;5030564;28;20021;-75
2021/12/30 01:57:50;;;;;;;16.45;10.35;;;9.30;99.90;;;;;;5029841;28;20480;-74
2021/12/30 02:00:18;;;;;;;;;;;9.30;99.90;;;;;;5030388;28;20112;-74
2021/12/30 02:02:44;;;;;;;17.05;10.45;;;9.20;99.90;;;;;;5029924;28;20342;-74
2021/12/30 02:05:10;;;;;;;;;;;9.30;99.90;;;;;;5030169;28;20036;-74
2021/12/30 02:07:35;;;;;;;20.75;10.80;;;9.30;99.90;;;;;;5029551;28;19909;-74
2021/12/30 02:10:02;;;;;;;;;;;9.30;99.90;;;;;;5029955;28;20017;-74
2021/12/30 02:12:31;;;;;;;19.38;11.85;;;9.30;99.90;;;;;;5029032;28;19909;-74
2021/12/30 02:14:57;;;;;;;31.33;11.25;;;9.30;99.90;;;;;;5012092;28;20124;-74
2021/12/30 02:17:23;;;;;;;;;;;9.30;99.90;;;;;;5030188;28;20558;-74
2021/12/30 02:19:48;;;;;;;17.40;10.38;;;9.30;99.90;;;;;;5030263;28;19946;-74
2021/12/30 02:22:14;;;;;;;;;;;9.30;99.90;;;;;;5030337;28;20124;-74
2021/12/30 02:24:51;;;;;;;24.17;12.25;;;9.30;99.90;;;;;;5029973;28;20254;-74
2021/12/30 02:27:18;;;;;;;21.63;11.07;;;9.30;99.90;;;;;;5029642;28;20022;-74
2021/12/30 02:29:43;;;;;;;22.90;11.68;;;9.40;99.90;;;;;;5030003;28;20113;-74
2021/12/30 02:32:09;;;;;;;;;;;9.40;99.90;;;;;;5029921;28;20104;-74
2021/12/30 02:34:38;;;;;;;26.15;11.45;;;9.40;99.90;;;;;;5029628;28;19912;-74
2021/12/30 02:37:04;;;;;;;24.60;12.32;;;9.40;99.90;;;;;;5029174;28;20328;-74
2021/12/30 02:39:30;;;;;;;20.85;10.95;;;9.40;99.90;;;;;;5029520;28;20030;-74
2021/12/30 02:41:55;;;;;;;;;;;9.50;99.90;;;;;;5029798;28;20021;-74
2021/12/30 02:44:22;;;;;;;27.02;11.43;;;9.50;99.90;;;;;;5028950;28;19905;-74
2021/12/30 02:46:52;;;;;;;28.30;11.82;;;9.50;99.90;;;;;;5029644;28;20033;-74
2021/12/30 02:49:18;;;;;;;21.15;10.82;;;9.50;99.90;;;;;;5029273;28;20060;-74
2021/12/30 02:51:44;;;;;;;;;;;9.50;99.90;;;;;;5029896;28;20032;-74
2021/12/30 02:54:09;;;;;;;23.52;10.20;;;9.50;99.90;;;;;;5029180;28;19909;-74
2021/12/30 02:56:35;;;;;;;;;;;9.60;99.90;;;;;;5029288;28;20063;-74
2021/12/30 02:59:01;;;;;;;22.00;11.27;;;9.60;99.90;;;;;;5029344;28;19909;-74
2021/12/30 03:01:29;;;;;;;26.58;11.48;;;9.60;99.90;;;;;;5028724;28;20063;-74
2021/12/30 03:03:56;;;;;;;17.02;9.68;;;9.60;99.90;;;;;;5028779;28;20014;-74
2021/12/30 03:06:23;;;;;;;24.52;11.30;;;9.60;99.90;;;;;;5028581;28;20111;-74
2021/12/30 03:08:50;;;;;;;27.95;12.38;;;9.60;99.90;;;;;;5028950;28;20111;-75
2021/12/30 03:11:17;;;;;;;24.60;10.70;;;9.60;99.90;;;;;;5029201;28;20164;-74
2021/12/30 03:13:44;;;;;;;16.90;9.90;;;9.60;99.90;;;;;;5029736;28;20031;-74
2021/12/30 03:16:14;;;;;;;20.73;11.70;;;9.60;99.90;;;;;;5029468;28;20028;-75
2021/12/30 03:18:42;;;;;;;19.40;10.10;;;9.60;99.90;;;;;;5029491;28;20021;-74
2021/12/30 03:21:09;;;;;;;20.67;10.88;;;9.60;99.90;;;;;;5029088;28;20033;-74
2021/12/30 03:23:35;;;;;;;22.45;12.00;;;9.70;99.90;;;;;;5029352;28;20026;-74
2021/12/30 03:26:04;;;;;;;23.65;10.98;;;9.70;99.90;;;;;;5029405;28;20497;-74
2021/12/30 03:28:29;;;;;;;28.15;11.18;;;9.70;99.90;;;;;;5029344;28;20040;-74
2021/12/30 03:30:58;;;;;;;;;;;9.70;99.90;;;;;;5029684;28;20030;-74
2021/12/30 03:33:29;;;;;;;34.75;12.00;;;9.70;99.90;;;;;;5029024;28;19905;-74
2021/12/30 03:35:59;;;;;;;25.70;11.50;;;9.70;99.90;;;;;;5028924;28;20029;-74
2021/12/30 03:38:25;;;;;;;21.55;10.48;;;9.70;99.90;;;;;;5029089;28;20571;-74
2021/12/30 03:40:51;;;;;;;21.13;11.48;;;9.70;99.90;;;;;;5028812;28;20401;-74
2021/12/30 03:43:16;;;;;;;;;;;9.70;99.90;;;;;;5029687;28;20022;-74
2021/12/30 03:45:43;;;;;;;30.05;11.45;;;9.70;99.90;;;;;;5029331;28;19951;-74
2021/12/30 03:48:08;;;;;;;26.13;11.15;;;9.70;99.90;;;;;;5028707;28;20537;-74
2021/12/30 03:50:34;;;;;;;;;;;9.70;99.90;;;;;;5028871;28;20021;-74
2021/12/30 03:53:02;;;;;;;37.17;10.45;;;9.70;99.90;;;;;;5028619;28;19959;-74
2021/12/30 03:55:30;;;;;;;24.38;10.38;;;9.70;99.90;;;;;;5028544;28;20477;-73
2021/12/30 03:57:56;;;;;;;17.60;9.38;;;9.70;99.90;;;;;;5031366;28;20091;-74
2021/12/30 04:00:24;;;;;;;21.33;9.27;;;9.70;99.90;;;;;;5031760;28;20036;-73
2021/12/30 04:02:50;;;;;;;30.02;11.88;;;9.70;99.90;;;;;;5031877;28;20022;-74
2021/12/30 04:05:15;;;;;;;;;;;9.70;99.90;;;;;;5032535;28;20091;-74
2021/12/30 04:07:41;;;;;;;21.40;9.00;;;9.70;99.90;;;;;;5031964;28;20376;-73
2021/12/30 04:10:08;;;;;;;;;;;9.60;99.90;;;;;;5032240;28;20430;-74
2021/12/30 04:12:35;;;;;;;33.40;12.95;;;9.50;99.90;;;;;;5031527;28;20429;-74
2021/12/30 04:15:03;;;;;;;28.05;10.25;;;9.50;99.90;;;;;;5032433;28;20046;-73
2021/12/30 04:17:29;;;;;;;24.15;9.98;;;9.40;99.90;;;;;;5032137;28;20030;-73
2021/12/30 04:19:55;;;;;;;30.27;9.35;;;9.40;99.90;;;;;;5032349;28;20375;-74
2021/12/30 04:22:20;;;;;;;;;;;9.40;99.90;;;;;;5032328;28;20500;-73
2021/12/30 04:24:46;;;;;;;30.13;10.20;;;9.40;99.90;;;;;;5032194;28;19909;-73
2021/12/30 04:27:12;;;;;;;28.63;7.50;;;9.50;99.90;;;;;;5031589;28;20160;-73
2021/12/30 04:29:37;;;;;;;;;;;9.50;99.90;;;;;;5032304;28;20537;-74
2021/12/30 04:32:03;;;;;;;24.15;7.45;;;9.60;99.90;;;;;;5031474;28;19909;-73
2021/12/30 04:34:29;;;;;;;23.88;8.65;;;9.60;99.90;;;;;;5031662;28;20498;-73
2021/12/30 04:36:58;;;;;;;21.75;7.35;;;9.60;99.90;;;;;;5048698;22;20405;-70
2021/12/30 04:39:25;;;;;;;22.83;7.85;;;9.60;99.90;;;;;;5041383;28;20029;-70
2021/12/30 04:41:51;;;;;;;17.70;7.78;;;9.60;99.90;;;;;;5041678;28;20017;-70
2021/12/30 04:44:16;;;;;;;;;;;9.60;99.90;;;;;;5042115;28;20036;-70
2021/12/30 04:46:42;;;;;;;28.58;7.70;;;9.60;99.90;;;;;;5041387;28;20322;-70
2021/12/30 04:49:07;;;;;;;;;;;9.60;99.90;;;;;;5041271;28;20414;-70
2021/12/30 04:51:32;;;;;;;23.67;7.43;;;9.70;99.90;;;;;;5040662;28;19905;-70
2021/12/30 04:53:58;;;;;;;;;;;9.70;99.90;;;;;;5041005;28;20020;-70
2021/12/30 04:56:23;;;;;;;25.55;7.38;;;9.60;99.90;;;;;;5040320;28;19916;-70
2021/12/30 04:58:49;;;;;;;28.63;7.78;;;9.60;99.90;;;;;;5040887;28;20038;-70
2021/12/30 05:01:14;;;;;;;;;;;9.60;99.90;;;;;;5041201;28;20116;-70
2021/12/30 05:03:40;;;;;;;24.58;7.30;;;9.60;99.90;;;;;;5040364;28;19912;-70
2021/12/30 05:06:05;;;;;;;;;;;9.60;99.90;;;;;;5041140;28;20072;-70
2021/12/30 05:08:31;;;;;;;28.13;6.32;;;9.60;99.90;;;;;;5040184;28;20290;-70
2021/12/30 05:10:56;;;;;;;;;;;9.60;99.90;;;;;;5041438;28;20024;-70
2021/12/30 05:13:22;;;;;;;25.33;6.30;;;9.60;99.90;;;;;;5040899;28;20250;-70
2021/12/30 05:15:48;;;;;;;31.98;6.35;;;9.50;99.90;;;;;;5040956;28;20021;-70
2021/12/30 05:18:15;;;;;;;19.35;5.70;;;9.50;99.90;;;;;;5041041;28;20064;-70
2021/12/30 05:20:41;;;;;;;24.58;6.30;;;9.50;99.90;;;;;;5040711;28;20017;-70
2021/12/30 05:23:07;;;;;;;;;;;9.50;99.90;;;;;;5041323;28;20095;-70
2021/12/30 05:25:33;;;;;;;19.35;6.13;;;9.40;99.90;;;;;;5040445;28;19955;-70
2021/12/30 05:27:58;;;;;;;;;;;9.40;99.90;;;;;;5041010;28;20030;-70
2021/12/30 05:30:25;;;;;;;26.25;6.85;;;9.40;99.90;;;;;;5040302;28;19966;-70
2021/12/30 05:32:56;;;;;;;24.55;7.30;;;9.30;99.90;;;;;;5040480;28;20024;-70
2021/12/30 05:35:22;;;;;;;21.05;5.78;;;9.30;99.90;;;;;;5040321;28;20028;-70
2021/12/30 05:37:48;;;;;;;25.73;7.07;;;9.40;99.90;;;;;;5040191;28;20033;-70
2021/12/30 05:40:20;;;;;;;22.05;7.53;;;9.30;99.90;;;;;;5040337;28;20025;-70
2021/12/30 05:42:46;;;;;;;27.98;5.82;;;9.30;99.90;;;;;;5039625;28;20021;-70
2021/12/30 05:45:16;;;;;;;28.17;6.60;;;9.30;99.90;;;;;;5040081;28;20518;-70
2021/12/30 05:47:46;;;;;;;24.00;6.65;;;9.30;99.90;;;;;;5039582;28;20026;-70
2021/12/30 05:50:14;;;;;;;30.20;7.93;;;9.30;99.90;;;;;;5040086;28;20052;-70
2021/12/30 05:52:40;;;;;;;19.08;5.55;;;9.30;99.90;;;;;;5039561;28;20025;-70
2021/12/30 05:55:06;;;;;;;;;;;9.30;99.90;;;;;;5040500;28;20033;-70
2021/12/30 05:57:31;;;;;;;24.98;6.60;;;9.40;99.90;;;;;;5039073;28;19905;-70
2021/12/30 05:59:57;;;;;;;;;;;9.40;99.90;;;;;;5040228;28;20029;-70
2021/12/30 06:02:22;;;;;;;20.65;6.30;;;9.50;99.90;;;;;;5039037;28;19916;-70
2021/12/30 06:04:48;;;;;;;;;;;9.50;99.90;;;;;;5039968;28;20044;-70
2021/12/30 06:07:13;;;;;;;23.23;6.32;;;9.50;99.90;;;;;;5040552;28;19905;-70
2021/12/30 06:09:39;;;;;;;19.88;6.78;;;9.50;99.90;;;;;;5040017;28;20025;-70
2021/12/30 06:12:05;;;;;;;;;;;9.50;99.90;;;;;;5040869;28;20079;-70
2021/12/30 06:14:30;;;;;;;30.95;7.88;;;9.50;99.90;;;;;;5039874;28;19924;-70
2021/12/30 06:16:56;;;;;;;18.00;6.00;;;9.50;99.90;;;;;;5039983;28;20116;-71
2021/12/30 06:19:21;;;;;;;;;;;9.50;99.90;;;;;;5039271;28;20025;-70
2021/12/30 06:21:47;;;;;;;18.33;5.93;;;9.50;99.90;;;;;;5039653;28;19915;-70
2021/12/30 06:24:12;;;;;;;;;;;9.50;99.90;;;;;;5040366;28;20036;-70
2021/12/30 06:26:38;;;;;;;22.45;7.22;;;9.50;99.90;;;;;;5039425;28;20029;-70
2021/12/30 06:29:04;;;;;;;;;;;9.50;99.90;;;;;;5039742;28;20028;-70
2021/12/30 06:31:29;;;;;;;18.38;6.82;;;9.50;99.90;;;;;;5039163;28;19944;-71
2021/12/30 06:33:55;;;;;;;27.98;7.82;;;9.50;99.90;;;;;;5039649;28;20031;-71
2021/12/30 06:36:23;;;;;;;;;;;9.50;99.90;;;;;;5039441;28;20040;-70
2021/12/30 06:38:50;;;;;;;32.30;7.28;;;9.50;99.90;;;;;;5038863;28;20050;-70
2021/12/30 06:41:16;;;;;;;27.60;7.95;;;9.50;99.90;;;;;;5039123;28;20129;-71
2021/12/30 06:43:41;;;;;;;;;;;9.50;99.90;;;;;;5039595;28;20029;-70
2021/12/30 06:46:09;;;;;;;27.27;6.35;;;9.50;99.90;;;;;;5038697;28;19967;-71
2021/12/30 06:48:35;;;;;;;25.00;8.00;;;9.50;99.90;;;;;;5038227;28;20465;-71
2021/12/30 06:51:03;;;;;;;;;;;9.50;99.90;;;;;;5039544;28;20017;-70
2021/12/30 06:53:29;;;;;;;27.42;7.13;;;9.50;99.90;;;;;;5038165;28;19952;-70
2021/12/30 06:55:54;;;;;;;;;;;9.50;99.90;;;;;;5039313;28;20052;-70
2021/12/30 06:58:20;;;;;;;24.95;7.35;;;9.50;99.90;;;;;;5038477;28;20104;-71
2021/12/30 07:00:47;;;;;;;27.63;8.73;;;9.50;99.90;;;;;;5039230;28;20102;-70
2021/12/30 07:03:13;;;;;;;21.27;8.27;;;9.50;99.90;;;;;;5038655;28;20040;-70
2021/12/30 07:05:38;;;;;;;;;;;9.50;99.90;;;;;;5038703;28;20017;-70
2021/12/30 07:08:04;;;;;;;25.63;9.90;;;9.50;99.90;;;;;;5039804;28;19905;-70
2021/12/30 07:10:30;;;;;;;;;;;9.50;99.90;;;;;;5039610;28;20038;-70
2021/12/30 07:12:55;;;;;;;26.92;9.20;;;9.60;99.90;;;;;;5039426;28;19911;-70
2021/12/30 07:15:21;;;;;;;;;;;9.60;99.90;;;;;;5039603;28;20064;-70
2021/12/30 07:17:47;;;;;;;21.58;9.77;;;9.70;99.90;;;;;;5039267;28;19912;-70
2021/12/30 07:20:13;;;;;;;28.90;10.20;;;9.70;99.90;;;;;;5039160;28;20065;-71
2021/12/30 07:22:39;;;;;;;;;;;9.70;99.90;;;;;;5039493;28;20078;-70
2021/12/30 07:25:05;;;;;;;23.25;9.52;;;9.70;99.90;;;;;;5039197;28;19991;-70
2021/12/30 07:27:30;;;;;;;30.20;11.23;;;9.80;99.90;;;;;;5038162;28;20061;-70
2021/12/30 07:29:58;;;;;;;;;;;9.80;99.90;;;;;;5039701;28;20059;-70
2021/12/30 07:32:24;;;;;;;29.88;9.45;;;9.80;99.90;;;;;;5042383;28;19905;-70
2021/12/30 07:34:50;;;;;;;;;;;9.80;99.90;;;;;;5043212;28;20033;-70
2021/12/30 07:37:16;;;;;;;28.55;11.93;;;9.80;99.90;;;;;;5042470;28;19999;-70
2021/12/30 07:39:42;;;;;;;27.02;10.30;;;9.80;99.90;;;;;;5042440;28;20032;-70
2021/12/30 07:42:08;;;;;;;;;;;9.80;99.90;;;;;;5042899;28;20104;-71
2021/12/30 07:44:33;;;;;;;30.95;10.70;;;9.90;99.90;;;;;;5041908;28;20446;-70
2021/12/30 07:46:59;;;;;;;;;;;9.90;99.90;;;;;;5042647;28;20091;-70
2021/12/30 07:49:24;;;;;;;30.00;12.30;;;9.90;99.90;;;;;;5041683;28;19905;-70
2021/12/30 07:51:50;;;;;;;;;;;9.90;99.90;;;;;;5042531;28;20083;-70
2021/12/30 07:54:15;;;;;;;29.67;10.63;;;9.90;99.90;;;;;;5042118;28;20293;-70
2021/12/30 07:56:41;;;;;;;;;;;10.00;99.90;;;;;;5041937;28;20560;-70
2021/12/30 07:59:06;;;;;;;22.00;11.48;;;10.00;99.90;;;;;;5041889;28;20004;-71
2021/12/30 08:01:32;;;;;;;;;;;10.00;99.90;;;;;;5041161;28;20120;-71
2021/12/30 08:03:57;;;;;;;25.17;11.90;;;10.00;99.90;;;;;;5041878;28;19916;-70
2021/12/30 08:06:26;;;;;;;;;;;10.10;99.90;;;;;;5042967;28;20075;-70
2021/12/30 08:08:52;;;;;;;22.08;11.57;;;10.10;99.90;;;;;;5042285;28;20314;-70
2021/12/30 08:11:17;;;;;;;;;;;10.20;99.90;;;;;;5042232;28;20056;-70
2021/12/30 08:13:43;;;;;;;18.50;10.95;;;10.20;99.90;;;;;;5042271;28;20292;-70
2021/12/30 08:16:08;;;;;;;;;;;10.30;99.90;;;;;;5042679;28;20032;-70
2021/12/30 08:18:34;;;;;;;26.80;10.57;;;10.30;99.90;;;;;;5041674;28;19955;-70
2021/12/30 08:20:59;;;;;;;21.02;10.43;;;10.30;99.90;;;;;;5041951;28;20034;-70
2021/12/30 08:23:25;;;;;;;;;;;10.30;99.90;;;;;;5042077;28;20067;-70
2021/12/30 08:25:51;;;;;;;19.35;9.30;;;10.40;99.90;;;;;;5042340;28;19948;-70
2021/12/30 08:28:18;;;;;;;19.75;9.82;;;10.40;99.90;;;;;;5041605;28;20032;-70
2021/12/30 08:30:44;;;;;;;24.20;9.75;;;10.40;99.90;;;;;;5041617;28;20048;-70
2021/12/30 08:33:09;;;;;;;;;;;10.40;99.90;;;;;;5041940;28;20025;-70
2021/12/30 08:35:35;;;;;;;26.50;10.15;;;10.50;99.90;;;;;;5041068;28;20394;-70
2021/12/30 08:38:00;;;;;;;;;;;10.50;99.90;;;;;;5041237;28;20482;-70
2021/12/30 08:40:26;;;;;;;17.73;9.70;;;10.50;99.90;;;;;;5040976;28;20383;-70
2021/12/30 08:42:52;;;;;;;21.95;8.73;;;10.50;99.90;;;;;;5040227;28;20040;-71
2021/12/30 08:45:18;;;;;;;;;;;10.50;99.90;;;;;;5041613;28;20040;-71
2021/12/30 08:47:44;;;;;;;19.58;7.20;;;10.50;99.90;;;;;;5040571;28;20004;-71
2021/12/30 08:50:13;;;;;;;20.63;7.65;;;10.50;99.90;;;;;;5041340;28;20091;-71
2021/12/30 08:52:40;;;;;;;21.05;9.20;;;10.50;99.90;;;;;;5040186;28;20027;-70
2021/12/30 08:55:06;;;;;;;25.63;8.13;;;10.50;99.90;;;;;;5040724;28;20026;-70
2021/12/30 08:57:34;;;;;;;22.88;8.40;;;10.50;99.90;;;;;;5039807;28;20061;-70
2021/12/30 09:00:01;;;;;;;21.48;8.70;;;10.60;99.90;;;;;;5022710;28;20099;-70
2021/12/30 09:02:27;;;;;;;23.50;7.85;;;10.60;99.90;;;;;;5039484;28;20061;-70
2021/12/30 09:04:52;;;;;;;;;;;10.60;99.90;;;;;;5042027;28;20048;-70
2021/12/30 09:07:18;;;;;;;20.73;7.43;;;10.60;99.90;;;;;;5041245;28;19954;-70
2021/12/30 09:09:45;;;;;;;22.35;6.50;;;10.60;99.90;;;;;;5041570;28;20063;-70
2021/12/30 09:12:12;;;;;;;22.20;6.72;;;10.70;99.90;;;;;;5040782;28;20104;-70
2021/12/30 09:14:37;;;;;;;;;;;10.70;99.90;;;;;;5041480;28;20378;-71
2021/12/30 09:17:04;;;;;;;23.27;10.07;;;10.70;99.90;;;;;;5040518;28;19912;-70
2021/12/30 09:19:30;;;;;;;16.15;7.32;;;10.70;99.90;;;;;;5040614;28;20053;-70
2021/12/30 09:21:56;;;;;;;;;;;10.80;99.90;;;;;;5041201;28;20060;-70
2021/12/30 09:24:22;;;;;;;13.35;5.57;;;10.80;99.90;;;;;;5040283;28;19909;-71
2021/12/30 09:26:48;;;;;;;;;;;10.80;99.90;;;;;;5040535;28;20045;-70
2021/12/30 09:29:13;;;;;;;9.27;4.70;;;10.80;99.90;;;;;;5040631;28;19961;-70
2021/12/30 09:31:44;;;;;;;;;;;10.80;99.90;;;;;;5040468;28;20067;-70
2021/12/30 09:34:10;;;;;;;12.48;4.30;;;10.80;99.90;;;;;;5040553;28;19916;-71
2021/12/30 09:36:36;;;;;;;8.38;3.85;;;10.90;99.90;;;;;;5039494;28;20034;-71
2021/12/30 09:39:04;;;;;;;9.43;6.10;;;10.90;99.90;;;;;;5039968;28;20021;-71
2021/12/30 09:41:30;;;;;;;9.73;4.70;;;10.90;99.90;;;;;;5039593;28;20780;-70
2021/12/30 09:43:56;;;;;;;;;;;10.90;99.90;;;;;;5040559;28;20021;-71
2021/12/30 09:46:22;;;;;;;12.00;2.97;;;10.90;99.90;;;;;;5039401;28;19909;-70
2021/12/30 09:48:48;;;;;;;12.77;4.18;;;10.90;99.90;;;;;;5040179;28;20112;-70
2021/12/30 09:51:14;;;;;;;12.70;4.50;;;10.90;99.90;;;;;;5039339;28;20042;-70
2021/12/30 09:53:39;;;;;;;;;;;10.90;99.90;;;;;;5039812;28;20029;-70
2021/12/30 09:56:05;;;;;;;8.68;4.38;;;10.90;99.90;;;;;;5039614;28;19913;-70
2021/12/30 09:58:30;;;;;;;;;;;10.90;99.90;;;;;;5039388;28;20037;-70
2021/12/30 10:00:56;;;;;;;9.43;3.35;;;10.90;99.90;;;;;;5039783;28;19905;-70
2021/12/30 10:03:22;;;;;;;10.45;3.20;;;10.90;99.90;;;;;;5040085;28;20025;-70
2021/12/30 10:05:48;;;;;;;;;;;10.90;99.90;;;;;;5040734;28;20135;-70
2021/12/30 10:08:24;;;;;;;11.88;3.10;;;11.00;99.90;;;;;;5040243;28;19912;-70
2021/12/30 10:10:53;;;;;;;6.30;2.80;;;11.00;99.90;;;;;;5040263;28;20064;-70
2021/12/30 10:13:21;;;;;;;6.18;2.85;;;11.00;99.90;;;;;;5036822;28;20048;-70
2021/12/30 10:15:50;;;;;;;4.88;2.78;;;11.10;99.90;;;;;;5039808;28;20025;-70
2021/12/30 10:18:18;;;;;;;13.32;2.80;;;11.10;99.90;;;;;;5039428;28;20025;-70
2021/12/30 10:20:44;;;;;;;8.38;2.17;;;11.10;99.90;;;;;;5039611;28;20029;-70
2021/12/30 10:23:22;;;;;;;11.55;2.83;;;11.10;99.90;;;;;;5039177;28;20090;-69
2021/12/30 10:25:52;;;;;;;12.15;3.58;;;11.10;99.90;;;;;;5039537;28;20052;-70
2021/12/30 10:28:23;;;;;;;9.15;2.55;;;11.10;99.90;;;;;;5038955;28;20018;-70
2021/12/30 10:30:53;;;;;;;13.43;3.55;;;11.10;99.90;;;;;;5039584;28;20482;-70
2021/12/30 10:33:24;;;;;;;4.60;2.38;;;11.20;99.90;;;;;;5038941;28;20025;-70
2021/12/30 10:35:50;;;;;;;6.50;2.25;;;11.20;99.90;;;;;;5039028;28;20063;-69
2021/12/30 10:38:16;;;;;;;3.13;1.90;;;11.20;99.90;;;;;;5038462;28;20040;-69
2021/12/30 10:40:43;;;;;;;;;;;11.30;99.90;;;;;;5039588;28;20377;-70
2021/12/30 10:43:20;;;;;;;6.22;1.83;;;11.30;99.90;;;;;;5038909;28;19913;-70
2021/12/30 10:46:06;;;;;;;5.75;1.73;;;11.30;99.90;;;;;;5039173;28;20376;-70
2021/12/30 10:48:33;;;;;;;4.87;1.63;;;11.30;99.90;;;;;;5038237;28;20013;-70
2021/12/30 10:51:14;;;;;;;7.05;2.28;;;11.30;99.90;;;;;;5038599;28;20096;-70
2021/12/30 10:53:39;;;;;;;10.23;2.80;;;11.30;99.90;;;;;;5038345;28;20025;-70
2021/12/30 10:56:24;;;;;;;;;;;11.30;99.90;;;;;;5038935;28;20507;-70
2021/12/30 10:58:50;;;;;;;6.15;2.28;;;11.30;99.90;;;;;;5038856;28;19912;-70
2021/12/30 11:01:20;;;;;;;6.25;2.30;;;11.30;99.90;;;;;;5039495;28;20025;-70
2021/12/30 11:03:58;;;;;;;6.53;2.47;;;11.30;99.90;;;;;;5039278;28;20021;-70
2021/12/30 11:06:24;;;;;;;4.13;1.60;;;11.40;99.90;;;;;;5040007;28;20057;-70
2021/12/30 11:09:03;;;;;;;;;;;11.40;99.90;;;;;;5044073;28;20086;-70
2021/12/30 11:11:29;;;;;;;2.40;1.30;;;11.40;99.90;;;;;;5042961;28;19952;-71
2021/12/30 11:14:03;;;;;;;;;;;11.50;99.90;;;;;;5043751;28;20448;-70
2021/12/30 11:16:29;;;;;;;4.07;0.95;;;11.50;99.90;;;;;;5042533;28;19908;-70
2021/12/30 11:18:56;;;;;;;6.97;1.98;;;11.50;99.90;;;;;;5042900;28;20039;-70
2021/12/30 11:21:42;;;;;;;4.05;1.88;;;11.60;99.90;;;;;;5042151;28;20025;-70
2021/12/30 11:24:09;;;;;;;9.43;2.15;;;11.60;99.90;;;;;;5042846;28;20028;-70
2021/12/30 11:26:34;;;;;;;3.92;2.17;;;11.60;99.90;;;;;;5042292;28;20602;-70
2021/12/30 11:29:00;;;;;;;;;;;11.70;99.90;;;;;;5043205;28;20552;-70
2021/12/30 11:31:27;;;;;;;5.50;1.63;;;11.70;99.90;;;;;;5042141;28;19915;-70
2021/12/30 11:33:53;;;;;;;4.60;1.40;;;11.60;99.90;;;;;;5042168;28;20380;-70
2021/12/30 11:36:18;;;;;;;;;;;11.60;99.90;;;;;;5042436;28;20029;-70
2021/12/30 11:38:44;;;;;;;2.75;1.40;;;11.60;99.90;;;;;;5042488;28;20340;-69
2021/12/30 11:41:17;;;;;;;;;;;11.60;99.90;;;;;;5042692;28;20032;-70
2021/12/30 11:43:44;;;;;;;5.90;1.08;;;11.60;99.90;;;;;;5042394;28;19959;-70
2021/12/30 11:46:46;;;;;;;3.95;0.85;;;11.60;99.90;;;;;;5042402;28;20100;-71
2021/12/30 11:49:14;;;;;;;2.75;0.77;;;11.60;99.90;;;;;;5041714;28;20094;-70
2021/12/30 11:51:53;;;;;;;1.50;0.85;;;11.60;99.90;;;;;;5041428;28;20032;-70
2021/12/30 11:54:32;;;;;;;1.60;0.80;;;11.60;99.90;;;;;;5042022;28;20044;-70
2021/12/30 11:57:34;;;;;;;1.80;0.70;;;11.60;99.90;;;;;;5042445;28;20040;-70
2021/12/30 12:00:33;;;;;;;1.80;0.85;;;11.60;99.90;;;;;;5042520;28;20104;-70
2021/12/30 12:03:02;;;;;;;1.70;0.80;;;11.60;99.90;;;;;;5042473;28;20478;-70
2021/12/30 12:05:42;;;;;;;3.95;1.00;;;11.60;99.90;;;;;;5041915;28;20535;-70
2021/12/30 12:08:12;;;;;;;1.98;1.23;;;11.60;99.90;;;;;;5042658;28;20020;-70
2021/12/30 12:10:40;;;;;;;3.63;1.38;;;11.60;99.90;;;;;;5042123;28;20055;-70
2021/12/30 12:13:30;;;;;;;1.40;0.80;;;11.60;99.90;;;;;;5041983;28;20445;-70
2021/12/30 12:15:56;;;;;;;1.70;1.00;;;11.60;99.90;;;;;;5042217;28;20020;-70
2021/12/30 12:18:23;;;;;;;2.25;1.02;;;11.60;99.90;;;;;;5039955;28;20029;-70
2021/12/30 12:20:53;;;;;;;2.90;0.85;;;11.60;99.90;;;;;;5041641;28;20029;-70
2021/12/30 12:23:32;;;;;;;4.53;0.93;;;11.70;99.90;;;;;;5041357;28;20029;-70
2021/12/30 12:26:05;;;;;;;3.08;0.80;;;11.70;99.90;;;;;;5041263;28;20044;-70
2021/12/30 12:28:31;;;;;;;0.85;0.80;;;11.70;99.90;;;;;;5040630;28;20393;-70
2021/12/30 12:30:57;;;;;;;;;;;11.80;99.90;;;;;;5042315;28;20027;-70
2021/12/30 12:33:26;;;;;;;2.65;1.10;;;11.70;99.90;;;;;;5040324;28;19905;-70
2021/12/30 12:35:51;;;;;;;2.45;1.45;;;11.80;99.90;;;;;;5041116;28;20021;-70
2021/12/30 12:38:34;;;;;;;;;;;11.80;99.90;;;;;;5041208;28;20041;-70
2021/12/30 12:41:02;;;;;;;2.47;1.63;;;11.80;99.90;;;;;;5040900;28;20386;-70
2021/12/30 12:43:28;;;;;;;2.22;1.65;;;11.80;99.90;;;;;;5040221;28;20029;-70
2021/12/30 12:45:58;;;;;;;2.63;2.05;;;11.90;99.90;;;;;;5040923;28;20465;-70
2021/12/30 12:48:29;;;;;;;3.05;2.03;;;11.90;99.90;;;;;;5040272;28;20024;-70
2021/12/30 12:51:01;;;;;;;6.10;3.05;;;11.90;99.90;;;;;;5041639;28;20024;-70
2021/12/30 12:53:26;;;;;;;4.47;3.05;;;12.00;99.90;;;;;;5041313;28;20473;-70
2021/12/30 12:55:53;;;;;;;;;;;12.10;99.90;;;;;;5041883;28;20013;-70
2021/12/30 12:58:21;;;;;;;9.02;4.50;;;12.20;99.90;;;;;;5041446;28;20414;-70
2021/12/30 13:00:47;;;;;;;6.43;4.97;;;12.30;99.90;;;;;;5041249;28;20030;-70
2021/12/30 13:03:15;;;;;;;7.13;4.85;;;12.40;99.90;;;;;;5041209;28;20064;-70
2021/12/30 13:05:59;;;;;;;6.22;5.60;;;12.50;99.90;;;;;;5041188;28;20021;-70
2021/12/30 13:08:26;;;;;;;6.70;6.00;;;12.50;99.90;;;;;;5040631;28;20103;-70
2021/12/30 13:10:52;;;;;;;6.13;4.97;;;12.60;99.90;;;;;;5040686;28;20226;-70